Terminal Aerodrome Forecast
Issued by NWS Shreveport, LA

Home | Current Version | Previous Version | Text Only | Print | Product List | Glossary On
Versions: 1 2 3 4 5 6 7 8 9 10 11 12 13 14 15 16
000
FTUS44 KSHV 230500 RRA
TAFTYR
TAF
KTYR 230542Z 2306/2406 17008KT P6SM SKC
      TEMPO 2311/2315 BKN015
     FM231500 21008KT P6SM SCT025
     FM240000 15005KT P6SM SKC=

USA.gov is the U.S. government's official web portal to all federal, state and local government web resources and services.